sensor_id;sensor_type;location;lat;lon;timestamp;P1;durP1;ratioP1;P2;durP2;ratioP2
34030;SDS011;20319;28.466;-16.274;2024-02-23T00:01:40;5.30;;;2.70;;
34030;SDS011;20319;28.466;-16.274;2024-02-23T00:04:05;7.28;;;3.10;;
34030;SDS011;20319;28.466;-16.274;2024-02-23T00:06:33;4.72;;;2.88;;
34030;SDS011;20319;28.466;-16.274;2024-02-23T00:08:59;7.00;;;2.65;;
34030;SDS011;20319;28.466;-16.274;2024-02-23T00:11:25;8.23;;;4.07;;
34030;SDS011;20319;28.466;-16.274;2024-02-23T00:13:51;7.00;;;2.80;;
34030;SDS011;20319;28.466;-16.274;2024-02-23T00:16:16;9.25;;;3.03;;
34030;SDS011;20319;28.466;-16.274;2024-02-23T00:18:42;4.60;;;2.65;;
34030;SDS011;20319;28.466;-16.274;2024-02-23T00:21:07;5.57;;;2.40;;
34030;SDS011;20319;28.466;-16.274;2024-02-23T00:23:33;10.75;;;2.80;;
34030;SDS011;20319;28.466;-16.274;2024-02-23T00:25:59;7.20;;;2.60;;
34030;SDS011;20319;28.466;-16.274;2024-02-23T00:28:24;5.55;;;2.72;;
34030;SDS011;20319;28.466;-16.274;2024-02-23T00:30:50;6.05;;;2.50;;
34030;SDS011;20319;28.466;-16.274;2024-02-23T00:33:15;6.65;;;2.25;;
34030;SDS011;20319;28.466;-16.274;2024-02-23T00:35:41;5.22;;;2.40;;
34030;SDS011;20319;28.466;-16.274;2024-02-23T00:38:07;6.50;;;2.30;;
34030;SDS011;20319;28.466;-16.274;2024-02-23T00:40:32;7.38;;;2.55;;
34030;SDS011;20319;28.466;-16.274;2024-02-23T00:42:58;7.43;;;2.42;;
34030;SDS011;20319;28.466;-16.274;2024-02-23T00:45:26;5.72;;;2.45;;
34030;SDS011;20319;28.466;-16.274;2024-02-23T00:47:51;4.22;;;1.95;;
34030;SDS011;20319;28.466;-16.274;2024-02-23T00:50:17;6.53;;;2.20;;
34030;SDS011;20319;28.466;-16.274;2024-02-23T00:52:43;3.95;;;2.08;;
34030;SDS011;20319;28.466;-16.274;2024-02-23T00:55:08;5.85;;;2.17;;
34030;SDS011;20319;28.466;-16.274;2024-02-23T00:57:34;6.95;;;2.58;;
34030;SDS011;20319;28.466;-16.274;2024-02-23T01:00:00;6.07;;;2.10;;
34030;SDS011;20319;28.466;-16.274;2024-02-23T01:02:30;6.50;;;1.80;;
34030;SDS011;20319;28.466;-16.274;2024-02-23T01:04:56;7.43;;;2.00;;
34030;SDS011;20319;28.466;-16.274;2024-02-23T01:07:23;5.35;;;2.00;;
34030;SDS011;20319;28.466;-16.274;2024-02-23T01:09:49;5.72;;;1.95;;
34030;SDS011;20319;28.466;-16.274;2024-02-23T01:12:15;6.30;;;1.80;;
34030;SDS011;20319;28.466;-16.274;2024-02-23T01:14:40;5.18;;;1.83;;
34030;SDS011;20319;28.466;-16.274;2024-02-23T01:17:06;6.68;;;2.20;;
34030;SDS011;20319;28.466;-16.274;2024-02-23T01:19:32;6.88;;;2.00;;
34030;SDS011;20319;28.466;-16.274;2024-02-23T01:21:57;6.57;;;2.25;;
34030;SDS011;20319;28.466;-16.274;2024-02-23T01:24:28;3.30;;;1.55;;
34030;SDS011;20319;28.466;-16.274;2024-02-23T01:26:54;2.42;;;1.75;;
34030;SDS011;20319;28.466;-16.274;2024-02-23T01:29:25;3.05;;;1.67;;
34030;SDS011;20319;28.466;-16.274;2024-02-23T01:31:52;5.15;;;1.67;;
34030;SDS011;20319;28.466;-16.274;2024-02-23T01:34:21;4.75;;;1.50;;
34030;SDS011;20319;28.466;-16.274;2024-02-23T01:36:47;4.75;;;1.73;;
34030;SDS011;20319;28.466;-16.274;2024-02-23T01:39:13;6.28;;;1.33;;
34030;SDS011;20319;28.466;-16.274;2024-02-23T01:41:38;4.18;;;1.80;;
34030;SDS011;20319;28.466;-16.274;2024-02-23T01:44:04;6.53;;;1.88;;
34030;SDS011;20319;28.466;-16.274;2024-02-23T01:46:30;4.40;;;1.52;;
34030;SDS011;20319;28.466;-16.274;2024-02-23T01:48:56;4.40;;;1.50;;
34030;SDS011;20319;28.466;-16.274;2024-02-23T01:51:23;5.38;;;1.50;;
34030;SDS011;20319;28.466;-16.274;2024-02-23T01:53:50;2.72;;;1.67;;
34030;SDS011;20319;28.466;-16.274;2024-02-23T01:56:16;5.93;;;1.70;;
34030;SDS011;20319;28.466;-16.274;2024-02-23T01:58:43;4.93;;;1.83;;
34030;SDS011;20319;28.466;-16.274;2024-02-23T02:01:09;4.10;;;1.65;;
34030;SDS011;20319;28.466;-16.274;2024-02-23T02:03:36;3.63;;;1.60;;
34030;SDS011;20319;28.466;-16.274;2024-02-23T02:06:03;6.30;;;1.77;;
34030;SDS011;20319;28.466;-16.274;2024-02-23T02:08:30;4.00;;;1.60;;
34030;SDS011;20319;28.466;-16.274;2024-02-23T02:10:56;3.30;;;1.50;;
34030;SDS011;20319;28.466;-16.274;2024-02-23T02:13:21;4.38;;;1.70;;
34030;SDS011;20319;28.466;-16.274;2024-02-23T02:15:47;5.35;;;1.58;;
34030;SDS011;20319;28.466;-16.274;2024-02-23T02:18:12;5.88;;;1.60;;
34030;SDS011;20319;28.466;-16.274;2024-02-23T02:20:38;8.15;;;1.70;;
34030;SDS011;20319;28.466;-16.274;2024-02-23T02:23:15;3.55;;;1.50;;
34030;SDS011;20319;28.466;-16.274;2024-02-23T02:25:41;2.35;;;1.40;;
34030;SDS011;20319;28.466;-16.274;2024-02-23T02:28:07;5.10;;;2.10;;
34030;SDS011;20319;28.466;-16.274;2024-02-23T02:30:33;6.25;;;1.85;;
34030;SDS011;20319;28.466;-16.274;2024-02-23T02:32:58;6.00;;;1.90;;
34030;SDS011;20319;28.466;-16.274;2024-02-23T02:35:24;3.85;;;1.63;;
34030;SDS011;20319;28.466;-16.274;2024-02-23T02:37:49;5.43;;;1.67;;
34030;SDS011;20319;28.466;-16.274;2024-02-23T02:40:15;5.47;;;1.38;;
34030;SDS011;20319;28.466;-16.274;2024-02-23T02:42:41;6.65;;;2.38;;
34030;SDS011;20319;28.466;-16.274;2024-02-23T02:45:07;4.85;;;1.52;;
34030;SDS011;20319;28.466;-16.274;2024-02-23T02:47:32;6.35;;;1.80;;
34030;SDS011;20319;28.466;-16.274;2024-02-23T02:49:58;4.03;;;1.70;;
34030;SDS011;20319;28.466;-16.274;2024-02-23T02:52:24;4.80;;;1.58;;
34030;SDS011;20319;28.466;-16.274;2024-02-23T02:54:50;5.63;;;1.70;;
34030;SDS011;20319;28.466;-16.274;2024-02-23T02:57:16;5.72;;;1.50;;
34030;SDS011;20319;28.466;-16.274;2024-02-23T02:59:41;3.78;;;1.95;;
34030;SDS011;20319;28.466;-16.274;2024-02-23T03:02:07;4.70;;;1.52;;
34030;SDS011;20319;28.466;-16.274;2024-02-23T03:04:33;4.18;;;1.60;;
34030;SDS011;20319;28.466;-16.274;2024-02-23T03:06:58;5.93;;;1.90;;
34030;SDS011;20319;28.466;-16.274;2024-02-23T03:09:24;5.15;;;1.50;;
34030;SDS011;20319;28.466;-16.274;2024-02-23T03:11:50;3.97;;;1.58;;
34030;SDS011;20319;28.466;-16.274;2024-02-23T03:14:15;7.15;;;2.22;;
34030;SDS011;20319;28.466;-16.274;2024-02-23T03:16:43;3.10;;;1.40;;
34030;SDS011;20319;28.466;-16.274;2024-02-23T03:19:08;3.92;;;1.60;;
34030;SDS011;20319;28.466;-16.274;2024-02-23T03:21:34;4.05;;;1.23;;
34030;SDS011;20319;28.466;-16.274;2024-02-23T03:24:00;7.43;;;1.50;;
34030;SDS011;20319;28.466;-16.274;2024-02-23T03:26:25;7.60;;;1.70;;
34030;SDS011;20319;28.466;-16.274;2024-02-23T03:28:51;5.35;;;1.52;;
34030;SDS011;20319;28.466;-16.274;2024-02-23T03:31:17;2.97;;;1.38;;
34030;SDS011;20319;28.466;-16.274;2024-02-23T03:33:42;5.00;;;1.50;;
34030;SDS011;20319;28.466;-16.274;2024-02-23T03:36:08;5.38;;;1.60;;
34030;SDS011;20319;28.466;-16.274;2024-02-23T03:38:33;4.43;;;1.25;;
34030;SDS011;20319;28.466;-16.274;2024-02-23T03:40:59;4.28;;;1.40;;
34030;SDS011;20319;28.466;-16.274;2024-02-23T03:43:25;4.65;;;1.50;;
34030;SDS011;20319;28.466;-16.274;2024-02-23T03:45:52;3.08;;;1.50;;
34030;SDS011;20319;28.466;-16.274;2024-02-23T03:48:17;5.75;;;1.65;;
34030;SDS011;20319;28.466;-16.274;2024-02-23T03:50:43;6.15;;;1.70;;
34030;SDS011;20319;28.466;-16.274;2024-02-23T03:53:08;4.75;;;1.58;;
34030;SDS011;20319;28.466;-16.274;2024-02-23T03:55:34;5.47;;;1.70;;
34030;SDS011;20319;28.466;-16.274;2024-02-23T03:57:59;4.25;;;1.50;;
34030;SDS011;20319;28.466;-16.274;2024-02-23T04:00:25;4.78;;;1.55;;
34030;SDS011;20319;28.466;-16.274;2024-02-23T04:02:51;5.10;;;1.35;;
34030;SDS011;20319;28.466;-16.274;2024-02-23T04:05:17;5.65;;;1.35;;
34030;SDS011;20319;28.466;-16.274;2024-02-23T04:07:44;2.53;;;1.30;;
34030;SDS011;20319;28.466;-16.274;2024-02-23T04:10:09;6.20;;;1.30;;
34030;SDS011;20319;28.466;-16.274;2024-02-23T04:12:35;4.68;;;1.30;;
34030;SDS011;20319;28.466;-16.274;2024-02-23T04:15:00;2.63;;;1.00;;
34030;SDS011;20319;28.466;-16.274;2024-02-23T04:17:26;6.68;;;1.50;;
34030;SDS011;20319;28.466;-16.274;2024-02-23T04:19:51;1.92;;;1.20;;
34030;SDS011;20319;28.466;-16.274;2024-02-23T04:22:17;4.45;;;1.30;;
34030;SDS011;20319;28.466;-16.274;2024-02-23T04:24:43;4.63;;;1.65;;
34030;SDS011;20319;28.466;-16.274;2024-02-23T04:27:08;2.35;;;1.40;;
34030;SDS011;20319;28.466;-16.274;2024-02-23T04:29:34;6.50;;;1.50;;
34030;SDS011;20319;28.466;-16.274;2024-02-23T04:32:00;6.55;;;1.40;;
34030;SDS011;20319;28.466;-16.274;2024-02-23T04:34:27;5.30;;;1.60;;
34030;SDS011;20319;28.466;-16.274;2024-02-23T04:36:53;3.72;;;1.45;;
34030;SDS011;20319;28.466;-16.274;2024-02-23T04:39:19;6.22;;;1.65;;
34030;SDS011;20319;28.466;-16.274;2024-02-23T04:41:45;4.35;;;1.70;;
34030;SDS011;20319;28.466;-16.274;2024-02-23T04:44:11;5.72;;;1.60;;
34030;SDS011;20319;28.466;-16.274;2024-02-23T04:46:36;2.75;;;1.38;;
34030;SDS011;20319;28.466;-16.274;2024-02-23T04:49:02;4.53;;;1.55;;
34030;SDS011;20319;28.466;-16.274;2024-02-23T04:51:27;5.18;;;1.40;;
34030;SDS011;20319;28.466;-16.274;2024-02-23T04:53:53;3.45;;;1.38;;
34030;SDS011;20319;28.466;-16.274;2024-02-23T04:56:19;3.80;;;1.33;;
34030;SDS011;20319;28.466;-16.274;2024-02-23T04:58:45;3.67;;;1.38;;
34030;SDS011;20319;28.466;-16.274;2024-02-23T05:01:12;5.20;;;1.45;;
34030;SDS011;20319;28.466;-16.274;2024-02-23T05:03:37;4.15;;;1.55;;
34030;SDS011;20319;28.466;-16.274;2024-02-23T05:06:03;2.95;;;1.58;;
34030;SDS011;20319;28.466;-16.274;2024-02-23T05:08:29;4.82;;;1.50;;
34030;SDS011;20319;28.466;-16.274;2024-02-23T05:10:55;3.38;;;1.67;;
34030;SDS011;20319;28.466;-16.274;2024-02-23T05:13:22;3.78;;;1.50;;
34030;SDS011;20319;28.466;-16.274;2024-02-23T05:15:48;3.13;;;1.50;;
34030;SDS011;20319;28.466;-16.274;2024-02-23T05:18:13;3.72;;;1.70;;
34030;SDS011;20319;28.466;-16.274;2024-02-23T05:20:39;5.88;;;1.65;;
34030;SDS011;20319;28.466;-16.274;2024-02-23T05:23:05;8.88;;;1.52;;
34030;SDS011;20319;28.466;-16.274;2024-02-23T05:25:30;6.57;;;1.73;;
34030;SDS011;20319;28.466;-16.274;2024-02-23T05:27:56;6.15;;;1.77;;
34030;SDS011;20319;28.466;-16.274;2024-02-23T05:30:21;6.57;;;1.85;;
34030;SDS011;20319;28.466;-16.274;2024-02-23T05:32:47;6.82;;;2.20;;
34030;SDS011;20319;28.466;-16.274;2024-02-23T05:35:13;4.00;;;1.73;;
34030;SDS011;20319;28.466;-16.274;2024-02-23T05:37:41;6.20;;;1.83;;
34030;SDS011;20319;28.466;-16.274;2024-02-23T05:40:07;3.30;;;1.50;;
34030;SDS011;20319;28.466;-16.274;2024-02-23T05:42:35;5.18;;;1.58;;
34030;SDS011;20319;28.466;-16.274;2024-02-23T05:45:02;3.80;;;1.30;;
34030;SDS011;20319;28.466;-16.274;2024-02-23T05:47:30;3.42;;;1.05;;
34030;SDS011;20319;28.466;-16.274;2024-02-23T05:49:58;2.03;;;1.00;;
34030;SDS011;20319;28.466;-16.274;2024-02-23T14:53:40;5.05;;;1.20;;
34030;SDS011;20319;28.466;-16.274;2024-02-23T14:56:06;5.35;;;1.40;;
34030;SDS011;20319;28.466;-16.274;2024-02-23T14:58:32;4.28;;;1.20;;
34030;SDS011;20319;28.466;-16.274;2024-02-23T15:00:57;6.00;;;2.00;;
34030;SDS011;20319;28.466;-16.274;2024-02-23T15:03:23;6.18;;;1.70;;
34030;SDS011;20319;28.466;-16.274;2024-02-23T15:05:49;2.60;;;1.20;;
34030;SDS011;20319;28.466;-16.274;2024-02-23T15:08:15;6.55;;;1.70;;
34030;SDS011;20319;28.466;-16.274;2024-02-23T15:10:40;5.18;;;1.30;;
34030;SDS011;20319;28.466;-16.274;2024-02-23T15:13:06;5.25;;;1.50;;
34030;SDS011;20319;28.466;-16.274;2024-02-23T15:15:32;9.95;;;3.75;;
34030;SDS011;20319;28.466;-16.274;2024-02-23T15:17:57;5.32;;;1.40;;
34030;SDS011;20319;28.466;-16.274;2024-02-23T15:20:23;7.75;;;1.40;;
34030;SDS011;20319;28.466;-16.274;2024-02-23T15:22:48;4.40;;;1.17;;
34030;SDS011;20319;28.466;-16.274;2024-02-23T15:25:15;7.90;;;1.48;;
34030;SDS011;20319;28.466;-16.274;2024-02-23T15:27:40;6.25;;;1.63;;
34030;SDS011;20319;28.466;-16.274;2024-02-23T15:30:06;4.90;;;1.40;;
34030;SDS011;20319;28.466;-16.274;2024-02-23T15:32:39;7.25;;;2.03;;
34030;SDS011;20319;28.466;-16.274;2024-02-23T15:35:05;7.45;;;1.80;;
34030;SDS011;20319;28.466;-16.274;2024-02-23T15:37:31;6.93;;;1.92;;
34030;SDS011;20319;28.466;-16.274;2024-02-23T15:39:57;20.85;;;2.40;;
34030;SDS011;20319;28.466;-16.274;2024-02-23T15:42:23;24.95;;;2.85;;
34030;SDS011;20319;28.466;-16.274;2024-02-23T15:44:49;9.18;;;2.30;;
34030;SDS011;20319;28.466;-16.274;2024-02-23T15:47:14;9.20;;;2.08;;
34030;SDS011;20319;28.466;-16.274;2024-02-23T15:49:40;39.40;;;6.85;;
34030;SDS011;20319;28.466;-16.274;2024-02-23T15:52:05;66.45;;;3.42;;
34030;SDS011;20319;28.466;-16.274;2024-02-23T15:54:31;60.08;;;2.63;;
34030;SDS011;20319;28.466;-16.274;2024-02-23T15:56:58;47.55;;;2.47;;
34030;SDS011;20319;28.466;-16.274;2024-02-23T15:59:25;9.77;;;0.88;;
34030;SDS011;20319;28.466;-16.274;2024-02-23T16:01:51;42.40;;;1.65;;
34030;SDS011;20319;28.466;-16.274;2024-02-23T16:04:17;45.92;;;1.90;;
34030;SDS011;20319;28.466;-16.274;2024-02-23T16:06:43;118.95;;;4.70;;
34030;SDS011;20319;28.466;-16.274;2024-02-23T16:09:08;154.93;;;6.13;;
34030;SDS011;20319;28.466;-16.274;2024-02-23T16:11:34;161.98;;;6.10;;
34030;SDS011;20319;28.466;-16.274;2024-02-23T16:14:01;21.77;;;1.25;;
34030;SDS011;20319;28.466;-16.274;2024-02-23T16:16:29;36.45;;;1.52;;
34030;SDS011;20319;28.466;-16.274;2024-02-23T16:18:55;11.65;;;0.77;;
34030;SDS011;20319;28.466;-16.274;2024-02-23T16:21:20;47.20;;;1.75;;
34030;SDS011;20319;28.466;-16.274;2024-02-23T16:23:46;51.90;;;1.75;;
34030;SDS011;20319;28.466;-16.274;2024-02-23T16:26:12;63.65;;;2.38;;
34030;SDS011;20319;28.466;-16.274;2024-02-23T16:28:38;74.65;;;2.80;;
34030;SDS011;20319;28.466;-16.274;2024-02-23T16:31:03;34.05;;;1.77;;
34030;SDS011;20319;28.466;-16.274;2024-02-23T16:33:29;168.02;;;5.65;;
34030;SDS011;20319;28.466;-16.274;2024-02-23T16:35:54;55.55;;;2.67;;
34030;SDS011;20319;28.466;-16.274;2024-02-23T16:38:23;113.07;;;4.07;;
34030;SDS011;20319;28.466;-16.274;2024-02-23T16:40:49;180.95;;;6.30;;
34030;SDS011;20319;28.466;-16.274;2024-02-23T16:43:14;142.27;;;5.10;;
34030;SDS011;20319;28.466;-16.274;2024-02-23T16:45:40;72.05;;;2.92;;
34030;SDS011;20319;28.466;-16.274;2024-02-23T16:48:06;120.85;;;3.85;;
34030;SDS011;20319;28.466;-16.274;2024-02-23T16:50:36;94.53;;;4.20;;
34030;SDS011;20319;28.466;-16.274;2024-02-23T16:53:06;142.07;;;5.27;;
34030;SDS011;20319;28.466;-16.274;2024-02-23T16:55:32;167.82;;;5.30;;
34030;SDS011;20319;28.466;-16.274;2024-02-23T16:57:58;158.02;;;5.75;;
34030;SDS011;20319;28.466;-16.274;2024-02-23T17:00:24;108.78;;;5.22;;
34030;SDS011;20319;28.466;-16.274;2024-02-23T17:02:53;137.38;;;4.63;;
34030;SDS011;20319;28.466;-16.274;2024-02-23T17:05:25;113.15;;;4.43;;
34030;SDS011;20319;28.466;-16.274;2024-02-23T17:07:51;174.50;;;5.88;;
34030;SDS011;20319;28.466;-16.274;2024-02-23T17:10:17;113.82;;;4.72;;
34030;SDS011;20319;28.466;-16.274;2024-02-23T17:12:43;272.30;;;10.70;;
34030;SDS011;20319;28.466;-16.274;2024-02-23T17:15:14;34.67;;;4.05;;
34030;SDS011;20319;28.466;-16.274;2024-02-23T17:17:40;31.92;;;3.90;;
34030;SDS011;20319;28.466;-16.274;2024-02-23T17:20:06;19.85;;;2.72;;
34030;SDS011;20319;28.466;-16.274;2024-02-23T17:22:32;21.35;;;3.35;;
34030;SDS011;20319;28.466;-16.274;2024-02-23T17:24:58;21.42;;;3.33;;
34030;SDS011;20319;28.466;-16.274;2024-02-23T17:27:24;24.15;;;3.45;;
34030;SDS011;20319;28.466;-16.274;2024-02-23T17:29:50;25.55;;;3.55;;
34030;SDS011;20319;28.466;-16.274;2024-02-23T17:32:15;23.77;;;3.85;;
34030;SDS011;20319;28.466;-16.274;2024-02-23T17:34:41;19.33;;;2.90;;
34030;SDS011;20319;28.466;-16.274;2024-02-23T17:37:07;16.38;;;3.28;;
34030;SDS011;20319;28.466;-16.274;2024-02-23T17:39:34;19.80;;;3.10;;
34030;SDS011;20319;28.466;-16.274;2024-02-23T17:42:00;17.48;;;3.35;;
34030;SDS011;20319;28.466;-16.274;2024-02-23T17:44:28;20.10;;;3.00;;
34030;SDS011;20319;28.466;-16.274;2024-02-23T17:46:54;21.27;;;3.50;;
34030;SDS011;20319;28.466;-16.274;2024-02-23T17:49:19;17.50;;;2.92;;
34030;SDS011;20319;28.466;-16.274;2024-02-23T17:51:45;21.33;;;3.20;;
34030;SDS011;20319;28.466;-16.274;2024-02-23T17:54:11;25.73;;;3.15;;
34030;SDS011;20319;28.466;-16.274;2024-02-23T17:56:36;18.38;;;4.25;;
34030;SDS011;20319;28.466;-16.274;2024-02-23T17:59:02;22.40;;;3.15;;
34030;SDS011;20319;28.466;-16.274;2024-02-23T18:01:28;20.52;;;4.38;;
34030;SDS011;20319;28.466;-16.274;2024-02-23T18:03:54;12.10;;;2.53;;
34030;SDS011;20319;28.466;-16.274;2024-02-23T18:06:20;28.15;;;3.58;;
34030;SDS011;20319;28.466;-16.274;2024-02-23T18:08:48;20.63;;;3.83;;
34030;SDS011;20319;28.466;-16.274;2024-02-23T18:11:14;24.08;;;4.32;;
34030;SDS011;20319;28.466;-16.274;2024-02-23T18:13:39;20.80;;;3.33;;
34030;SDS011;20319;28.466;-16.274;2024-02-23T18:16:09;24.40;;;4.78;;
34030;SDS011;20319;28.466;-16.274;2024-02-23T18:18:38;22.95;;;3.78;;
34030;SDS011;20319;28.466;-16.274;2024-02-23T18:21:04;22.23;;;3.95;;
34030;SDS011;20319;28.466;-16.274;2024-02-23T18:23:31;31.10;;;4.07;;
34030;SDS011;20319;28.466;-16.274;2024-02-23T18:25:56;23.65;;;4.00;;
34030;SDS011;20319;28.466;-16.274;2024-02-23T18:28:22;18.83;;;3.72;;
34030;SDS011;20319;28.466;-16.274;2024-02-23T18:30:48;27.73;;;3.63;;
34030;SDS011;20319;28.466;-16.274;2024-02-23T18:33:14;27.83;;;4.05;;
34030;SDS011;20319;28.466;-16.274;2024-02-23T18:35:40;23.27;;;3.45;;
34030;SDS011;20319;28.466;-16.274;2024-02-23T18:38:05;19.40;;;3.75;;
34030;SDS011;20319;28.466;-16.274;2024-02-23T18:40:32;26.65;;;4.57;;
34030;SDS011;20319;28.466;-16.274;2024-02-23T18:42:57;25.85;;;4.32;;
34030;SDS011;20319;28.466;-16.274;2024-02-23T18:45:23;25.30;;;3.75;;
34030;SDS011;20319;28.466;-16.274;2024-02-23T18:47:48;24.50;;;4.18;;
34030;SDS011;20319;28.466;-16.274;2024-02-23T18:50:14;23.23;;;3.35;;
34030;SDS011;20319;28.466;-16.274;2024-02-23T18:52:39;15.25;;;2.83;;
34030;SDS011;20319;28.466;-16.274;2024-02-23T18:55:05;17.23;;;2.75;;
34030;SDS011;20319;28.466;-16.274;2024-02-23T18:57:34;22.33;;;3.83;;
34030;SDS011;20319;28.466;-16.274;2024-02-23T19:00:00;21.90;;;2.92;;
34030;SDS011;20319;28.466;-16.274;2024-02-23T19:02:26;21.70;;;2.55;;
34030;SDS011;20319;28.466;-16.274;2024-02-23T19:04:52;19.77;;;2.58;;
34030;SDS011;20319;28.466;-16.274;2024-02-23T19:07:18;17.98;;;2.90;;
34030;SDS011;20319;28.466;-16.274;2024-02-23T19:09:43;18.92;;;2.72;;
34030;SDS011;20319;28.466;-16.274;2024-02-23T19:12:09;11.38;;;2.20;;
34030;SDS011;20319;28.466;-16.274;2024-02-23T19:14:36;20.20;;;2.97;;
34030;SDS011;20319;28.466;-16.274;2024-02-23T19:17:02;12.65;;;2.15;;
34030;SDS011;20319;28.466;-16.274;2024-02-23T19:19:27;18.77;;;2.60;;
34030;SDS011;20319;28.466;-16.274;2024-02-23T19:21:53;20.23;;;3.15;;
34030;SDS011;20319;28.466;-16.274;2024-02-23T19:24:18;15.85;;;2.47;;
34030;SDS011;20319;28.466;-16.274;2024-02-23T19:26:44;17.42;;;2.70;;
34030;SDS011;20319;28.466;-16.274;2024-02-23T19:29:11;13.02;;;2.53;;
34030;SDS011;20319;28.466;-16.274;2024-02-23T19:31:37;12.25;;;2.53;;
34030;SDS011;20319;28.466;-16.274;2024-02-23T19:34:03;15.23;;;2.38;;
34030;SDS011;20319;28.466;-16.274;2024-02-23T19:36:31;15.13;;;2.80;;
34030;SDS011;20319;28.466;-16.274;2024-02-23T19:38:57;19.63;;;3.00;;
34030;SDS011;20319;28.466;-16.274;2024-02-23T19:41:23;18.98;;;2.65;;
34030;SDS011;20319;28.466;-16.274;2024-02-23T19:43:49;21.40;;;3.42;;
34030;SDS011;20319;28.466;-16.274;2024-02-23T19:46:15;19.65;;;2.85;;
34030;SDS011;20319;28.466;-16.274;2024-02-23T19:48:47;14.82;;;1.80;;
34030;SDS011;20319;28.466;-16.274;2024-02-23T19:51:13;19.63;;;2.65;;
34030;SDS011;20319;28.466;-16.274;2024-02-23T19:53:39;21.48;;;3.15;;
34030;SDS011;20319;28.466;-16.274;2024-02-23T19:56:07;9.90;;;2.20;;
34030;SDS011;20319;28.466;-16.274;2024-02-23T19:58:33;12.45;;;2.42;;
34030;SDS011;20319;28.466;-16.274;2024-02-23T20:00:59;13.70;;;2.10;;
34030;SDS011;20319;28.466;-16.274;2024-02-23T20:03:25;14.35;;;2.15;;
34030;SDS011;20319;28.466;-16.274;2024-02-23T20:05:51;8.70;;;2.10;;
34030;SDS011;20319;28.466;-16.274;2024-02-23T20:08:16;10.77;;;1.50;;
34030;SDS011;20319;28.466;-16.274;2024-02-23T20:10:44;11.13;;;1.70;;
34030;SDS011;20319;28.466;-16.274;2024-02-23T20:13:10;12.90;;;1.50;;
34030;SDS011;20319;28.466;-16.274;2024-02-23T20:15:35;8.32;;;1.70;;
34030;SDS011;20319;28.466;-16.274;2024-02-23T20:18:01;9.82;;;2.20;;
34030;SDS011;20319;28.466;-16.274;2024-02-23T20:20:28;12.93;;;2.15;;
34030;SDS011;20319;28.466;-16.274;2024-02-23T20:22:54;9.60;;;1.98;;
34030;SDS011;20319;28.466;-16.274;2024-02-23T20:25:20;11.85;;;2.15;;
34030;SDS011;20319;28.466;-16.274;2024-02-23T20:27:45;9.60;;;2.30;;
34030;SDS011;20319;28.466;-16.274;2024-02-23T20:30:11;9.90;;;1.73;;
34030;SDS011;20319;28.466;-16.274;2024-02-23T20:32:38;14.82;;;2.83;;
34030;SDS011;20319;28.466;-16.274;2024-02-23T20:35:03;12.25;;;1.90;;
34030;SDS011;20319;28.466;-16.274;2024-02-23T20:37:32;13.02;;;2.40;;
34030;SDS011;20319;28.466;-16.274;2024-02-23T20:39:58;8.02;;;1.88;;
34030;SDS011;20319;28.466;-16.274;2024-02-23T20:42:25;10.73;;;2.00;;
34030;SDS011;20319;28.466;-16.274;2024-02-23T20:44:51;9.35;;;1.63;;
34030;SDS011;20319;28.466;-16.274;2024-02-23T20:47:17;7.00;;;1.95;;
34030;SDS011;20319;28.466;-16.274;2024-02-23T20:49:43;9.77;;;2.25;;
34030;SDS011;20319;28.466;-16.274;2024-02-23T20:52:12;9.32;;;2.08;;
34030;SDS011;20319;28.466;-16.274;2024-02-23T20:54:41;14.23;;;1.90;;
34030;SDS011;20319;28.466;-16.274;2024-02-23T20:57:12;13.00;;;1.70;;
34030;SDS011;20319;28.466;-16.274;2024-02-23T20:59:41;11.00;;;1.90;;
34030;SDS011;20319;28.466;-16.274;2024-02-23T21:02:07;13.95;;;2.47;;
34030;SDS011;20319;28.466;-16.274;2024-02-23T21:04:33;12.30;;;1.88;;
34030;SDS011;20319;28.466;-16.274;2024-02-23T21:07:04;9.00;;;1.83;;
34030;SDS011;20319;28.466;-16.274;2024-02-23T21:09:30;12.05;;;2.38;;
34030;SDS011;20319;28.466;-16.274;2024-02-23T21:11:56;9.68;;;2.10;;
34030;SDS011;20319;28.466;-16.274;2024-02-23T21:14:22;6.93;;;1.77;;
34030;SDS011;20319;28.466;-16.274;2024-02-23T21:16:47;10.60;;;2.00;;
34030;SDS011;20319;28.466;-16.274;2024-02-23T21:19:13;13.75;;;2.42;;
34030;SDS011;20319;28.466;-16.274;2024-02-23T21:21:41;10.85;;;2.28;;
34030;SDS011;20319;28.466;-16.274;2024-02-23T21:24:08;7.25;;;1.88;;
34030;SDS011;20319;28.466;-16.274;2024-02-23T21:26:34;10.73;;;2.38;;
34030;SDS011;20319;28.466;-16.274;2024-02-23T21:29:00;9.55;;;1.92;;
34030;SDS011;20319;28.466;-16.274;2024-02-23T21:31:26;10.48;;;2.03;;
34030;SDS011;20319;28.466;-16.274;2024-02-23T21:33:52;10.13;;;1.85;;
34030;SDS011;20319;28.466;-16.274;2024-02-23T21:36:19;10.15;;;1.83;;
34030;SDS011;20319;28.466;-16.274;2024-02-23T21:38:45;7.50;;;1.98;;
34030;SDS011;20319;28.466;-16.274;2024-02-23T21:41:11;9.15;;;1.75;;
34030;SDS011;20319;28.466;-16.274;2024-02-23T21:43:37;7.88;;;1.80;;
34030;SDS011;20319;28.466;-16.274;2024-02-23T21:46:04;9.02;;;1.40;;
34030;SDS011;20319;28.466;-16.274;2024-02-23T21:48:37;8.07;;;1.40;;
34030;SDS011;20319;28.466;-16.274;2024-02-23T21:51:03;5.82;;;1.20;;
34030;SDS011;20319;28.466;-16.274;2024-02-23T21:53:29;7.53;;;1.67;;
34030;SDS011;20319;28.466;-16.274;2024-02-23T21:55:55;6.78;;;1.70;;
34030;SDS011;20319;28.466;-16.274;2024-02-23T21:58:20;8.60;;;2.40;;
34030;SDS011;20319;28.466;-16.274;2024-02-23T22:00:46;9.93;;;2.22;;
34030;SDS011;20319;28.466;-16.274;2024-02-23T22:03:12;10.90;;;2.13;;
34030;SDS011;20319;28.466;-16.274;2024-02-23T22:05:37;9.20;;;2.22;;
34030;SDS011;20319;28.466;-16.274;2024-02-23T22:08:03;11.23;;;2.00;;
34030;SDS011;20319;28.466;-16.274;2024-02-23T22:10:29;9.25;;;1.90;;
34030;SDS011;20319;28.466;-16.274;2024-02-23T22:12:54;7.63;;;1.73;;
34030;SDS011;20319;28.466;-16.274;2024-02-23T22:15:20;7.47;;;1.80;;
34030;SDS011;20319;28.466;-16.274;2024-02-23T22:17:46;7.50;;;2.13;;
34030;SDS011;20319;28.466;-16.274;2024-02-23T22:20:11;8.52;;;2.05;;
34030;SDS011;20319;28.466;-16.274;2024-02-23T22:22:38;11.15;;;2.40;;
34030;SDS011;20319;28.466;-16.274;2024-02-23T22:25:04;10.48;;;2.63;;
34030;SDS011;20319;28.466;-16.274;2024-02-23T22:27:30;15.18;;;2.20;;
34030;SDS011;20319;28.466;-16.274;2024-02-23T22:29:56;13.95;;;2.47;;
34030;SDS011;20319;28.466;-16.274;2024-02-23T22:32:22;13.45;;;2.30;;
34030;SDS011;20319;28.466;-16.274;2024-02-23T22:34:48;14.60;;;2.88;;
34030;SDS011;20319;28.466;-16.274;2024-02-23T22:37:14;10.68;;;2.38;;
34030;SDS011;20319;28.466;-16.274;2024-02-23T22:39:40;12.15;;;2.45;;
34030;SDS011;20319;28.466;-16.274;2024-02-23T22:42:06;10.73;;;2.40;;
34030;SDS011;20319;28.466;-16.274;2024-02-23T22:44:32;17.35;;;3.00;;
34030;SDS011;20319;28.466;-16.274;2024-02-23T22:46:57;19.38;;;3.22;;
34030;SDS011;20319;28.466;-16.274;2024-02-23T22:49:23;12.93;;;2.63;;
34030;SDS011;20319;28.466;-16.274;2024-02-23T22:51:49;17.30;;;3.30;;
34030;SDS011;20319;28.466;-16.274;2024-02-23T22:54:14;20.23;;;3.88;;
34030;SDS011;20319;28.466;-16.274;2024-02-23T22:56:40;15.30;;;3.20;;
34030;SDS011;20319;28.466;-16.274;2024-02-23T22:59:05;17.92;;;3.38;;
34030;SDS011;20319;28.466;-16.274;2024-02-23T23:01:43;19.10;;;2.88;;
34030;SDS011;20319;28.466;-16.274;2024-02-23T23:04:08;15.38;;;3.05;;
34030;SDS011;20319;28.466;-16.274;2024-02-23T23:06:34;16.45;;;3.28;;
34030;SDS011;20319;28.466;-16.274;2024-02-23T23:09:00;16.00;;;2.97;;
34030;SDS011;20319;28.466;-16.274;2024-02-23T23:11:26;15.50;;;2.40;;